Caden Foss — WDJ6190 — position and weather

sailwx.info

Track history (hours):
 
Tides and Currents Weather Stations Pressure Air Temp Water Temp Dewpoint Dewpoint Depression Visibility Wind Speed Wind Dir Waves Ship Positions

Caden Foss

Owner: Foss Maritime Co, Seattle, WA. More information available from US FCC via Universal Licensing System and Coast Guard Vessel Documentation Center.

Last reported at 2017-Nov-17 23:00 UTC. Time now 2017-Nov-17 23:19 UTC.
Position N 37°52' W 122°24'.

Length 34 m; draft 6.1 m.

Type: Tug. MMSI: 367795270.

Date/timePositionNaut miles runAvg speedWind from/ knotsBaromVisibWave heightAir tempDewpointWater temp
2017-Nov-17 23:00N 37°52' W 122°24'3 6.1
2017-Nov-17 22:30N 37°49' W 122°25'0 0.0
2017-Nov-17 22:01N 37°49' W 122°25'1 1.4
2017-Nov-17 21:30N 37°49' W 122°25'1 1.4
2017-Nov-17 21:00N 37°50' W 122°25'4 7.6
2017-Nov-17 20:31N 37°54' W 122°25'2 3.1
2017-Nov-17 20:00N 37°55' W 122°25'0 0.0
2017-Nov-17 19:30N 37°55' W 122°25'0 0.0
2017-Nov-17 19:00N 37°55' W 122°25'0 0.0
2017-Nov-17 18:27N 37°55' W 122°25'0 0.0
2017-Nov-17 17:54N 37°55' W 122°25'0 0.0
2017-Nov-17 17:24N 37°55' W 122°25'0 0.0
2017-Nov-17 16:48N 37°55' W 122°25'0 0.0
2017-Nov-17 16:30N 37°55' W 122°25'0 0.8
2017-Nov-17 15:56N 37°56' W 122°25'0 0.3
2017-Nov-17 15:30N 37°56' W 122°25'1 2.9
2017-Nov-17 15:00N 37°54' W 122°25'3 6.9
2017-Nov-17 14:30N 37°51' W 122°25'4 8.1
2017-Nov-17 14:00N 37°49' W 122°29'1 2.4
2017-Nov-17 13:30N 37°49' W 122°31'0 0.6
2017-Nov-17 13:00N 37°49' W 122°31'1 1.8
2017-Nov-17 12:30N 37°49' W 122°30'5 9.2
2017-Nov-17 12:00N 37°52' W 122°26'3 6.1
2017-Nov-17 11:29N 37°55' W 122°25'0 0.0
2017-Nov-17 10:59N 37°55' W 122°25'0 0.0
2017-Nov-17 10:26N 37°55' W 122°25'0 0.0
2017-Nov-17 09:59N 37°55' W 122°25'0 0.0
2017-Nov-17 09:26N 37°55' W 122°25'0 0.0
2017-Nov-17 08:59N 37°55' W 122°25'0 0.0
2017-Nov-17 08:29N 37°55' W 122°25'0 0.0
2017-Nov-17 07:56N 37°55' W 122°25'0 0.0
2017-Nov-17 07:29N 37°55' W 122°25'0 0.0
2017-Nov-17 06:59N 37°55' W 122°25'0 0.0
2017-Nov-17 06:26N 37°55' W 122°25'0 0.0
2017-Nov-17 05:59N 37°55' W 122°25'0 0.0
2017-Nov-17 05:29N 37°55' W 122°25'0 0.0
2017-Nov-17 04:53N 37°55' W 122°25'0 0.0
2017-Nov-17 04:29N 37°55' W 122°25'0 0.0
2017-Nov-17 03:59N 37°55' W 122°25'0 0.4
2017-Nov-17 03:29N 37°55' W 122°25'0 0.3
2017-Nov-17 02:58N 37°55' W 122°25'2 4.0
2017-Nov-17 02:30N 37°53' W 122°25'4 9.0
2017-Nov-17 02:00N 37°49' W 122°24'5 9.5
2017-Nov-17 01:30N 37°45' W 122°21'0 0.5
2017-Nov-17 01:00N 37°45' W 122°21'2 3.4
2017-Nov-17 00:30N 37°47' W 122°22'5 9.4
2017-Nov-17 00:01N 37°51' W 122°24'4 7.3
2017-Nov-16 23:30N 37°55' W 122°25'1 1.8
2017-Nov-16 22:58N 37°54' W 122°23'1 2.6
2017-Nov-16 22:28N 37°55' W 122°25'0 0.0
2017-Nov-16 21:46N 37°55' W 122°25'0 0.0
2017-Nov-16 21:28N 37°55' W 122°25'0 0.0
2017-Nov-16 21:01N 37°55' W 122°25'2 3.3
2017-Nov-16 20:24N 37°54' W 122°22'0 0.0
2017-Nov-16 20:00N 37°54' W 122°22'1 1.9
2017-Nov-16 19:30N 37°54' W 122°24'2 2.8
2017-Nov-16 18:54N 37°56' W 122°25'0 0.4
2017-Nov-16 18:30N 37°55' W 122°25'2 1.3
2017-Nov-16 16:34N 37°54' W 122°22'0 0.0
2017-Nov-16 16:26N 37°54' W 122°22'0 0.0
2017-Nov-16 15:53N 37°54' W 122°22'0 0.0
2017-Nov-16 15:22N 37°54' W 122°22'0 0.0
2017-Nov-16 15:00N 37°54' W 122°22'0 0.0
2017-Nov-16 14:29N 37°54' W 122°22'0 0.0
2017-Nov-16 13:58N 37°54' W 122°22'2 4.6
2017-Nov-16 13:30N 37°53' W 122°25'510.9
2017-Nov-16 13:01N 37°48' W 122°21'2 4.2
2017-Nov-16 12:31N 37°48' W 122°19'1 1.6
2017-Nov-16 12:00N 37°48' W 122°20'2 3.4
2017-Nov-16 11:31N 37°48' W 122°22'1 1.1
2017-Nov-16 11:00N 37°48' W 122°21'2 3.2
2017-Nov-16 10:30N 37°48' W 122°19'0 0.1
2017-Nov-16 10:01N 37°48' W 122°19'0 0.0
2017-Nov-16 09:31N 37°48' W 122°19'0 0.0
2017-Nov-16 09:00N 37°48' W 122°19'0 0.0
2017-Nov-16 08:31N 37°48' W 122°19'0 0.0
2017-Nov-16 08:01N 37°48' W 122°19'0 0.0
2017-Nov-16 07:31N 37°48' W 122°19'0 0.0
2017-Nov-16 07:01N 37°48' W 122°19'0 0.0
2017-Nov-16 06:30N 37°48' W 122°19'0 0.0
2017-Nov-16 06:01N 37°48' W 122°19'3 5.1
2017-Nov-16 05:30N 37°46' W 122°22'1 2.7
2017-Nov-16 05:01N 37°45' W 122°23'0 0.1
2017-Nov-16 04:30N 37°45' W 122°23'2 4.4
2017-Nov-16 04:00N 37°47' W 122°21'3 5.0
2017-Nov-16 03:30N 37°48' W 122°18'0 0.5
2017-Nov-16 03:01N 37°48' W 122°18'1 2.7
2017-Nov-16 02:30N 37°48' W 122°20'0 0.0
2017-Nov-16 02:00N 37°48' W 122°20'0 0.2
2017-Nov-16 01:30N 37°48' W 122°19'0 0.6
2017-Nov-16 01:00N 37°48' W 122°19'1 2.5
2017-Nov-16 00:30N 37°48' W 122°21'510.6
2017-Nov-16 00:00N 37°52' W 122°24'712.4
2017-Nov-15 23:25N 37°60' W 122°25'612.9
2017-Nov-15 22:59N 38°03' W 122°19'8 3.6
2017-Nov-15 20:41N 38°02' W 122°09'2 6.5
2017-Nov-15 20:23N 38°03' W 122°11'3 8.0
2017-Nov-15 20:00N 38°04' W 122°15'4 7.9
2017-Nov-15 19:28N 38°03' W 122°20'3 7.5
2017-Nov-15 19:00N 38°01' W 122°24'5 8.0
2017-Nov-15 18:26N 37°57' W 122°27'3 6.2
2017-Nov-15 18:00N 37°54' W 122°26'1 2.7
2017-Nov-15 17:31N 37°55' W 122°25'510.6
2017-Nov-15 17:00N 37°50' W 122°23'4 7.8
2017-Nov-15 16:30N 37°48' W 122°19'0 0.3
2017-Nov-15 16:00N 37°48' W 122°19'0 0.7
2017-Nov-15 15:30N 37°48' W 122°19'510.2
2017-Nov-15 15:00N 37°51' W 122°24'4 7.6
2017-Nov-15 14:29N 37°55' W 122°25'0 0.0
2017-Nov-15 13:59N 37°55' W 122°25'0 0.0
2017-Nov-15 13:29N 37°55' W 122°25'0 0.0
2017-Nov-15 12:59N 37°55' W 122°25'0 0.0
2017-Nov-15 12:29N 37°55' W 122°25'0 0.0
2017-Nov-15 11:56N 37°55' W 122°25'0 0.0
2017-Nov-15 11:26N 37°55' W 122°25'0 0.0
2017-Nov-15 10:53N 37°55' W 122°25'0 0.0
2017-Nov-15 10:26N 37°55' W 122°25'0 0.0
2017-Nov-15 09:56N 37°55' W 122°25'0 0.0
2017-Nov-15 09:29N 37°55' W 122°25'0 0.0
2017-Nov-15 08:56N 37°55' W 122°25'0 0.0
2017-Nov-15 08:29N 37°55' W 122°25'0 0.0
2017-Nov-15 07:50N 37°55' W 122°25'0 0.0
2017-Nov-15 07:29N 37°55' W 122°25'0 0.0
2017-Nov-15 06:53N 37°55' W 122°25'0 0.0
2017-Nov-15 06:26N 37°55' W 122°25'0 0.0
2017-Nov-15 06:00N 37°55' W 122°25'2 2.7
2017-Nov-15 05:15N 37°54' W 122°22'0 0.0
2017-Nov-15 05:00N 37°54' W 122°22'0 0.0
2017-Nov-15 04:27N 37°54' W 122°22'0 0.0
2017-Nov-15 03:57N 37°54' W 122°22'0 0.0
2017-Nov-15 03:30N 37°54' W 122°22'1 1.6
2017-Nov-15 03:00N 37°55' W 122°22'0 0.6
2017-Nov-15 02:28N 37°55' W 122°22'1 1.5
2017-Nov-15 02:00N 37°54' W 122°22'0 0.0
2017-Nov-15 01:25N 37°54' W 122°22'1 1.5
2017-Nov-15 01:00N 37°55' W 122°22'1 1.3
2017-Nov-15 00:30N 37°55' W 122°22'3 5.3
2017-Nov-15 00:00N 37°54' W 122°25'510.8
2017-Nov-14 23:31N 37°49' W 122°21'2 3.8
2017-Nov-14 23:00N 37°48' W 122°20'2 3.3
2017-Nov-14 22:30N 37°48' W 122°22'2 3.0
2017-Nov-14 22:01N 37°49' W 122°23'2 4.3
2017-Nov-14 21:30N 37°51' W 122°24'4 8.2
2017-Nov-14 21:00N 37°55' W 122°25'0 0.0
2017-Nov-14 20:28N 37°55' W 122°25'0 0.0
2017-Nov-14 19:58N 37°55' W 122°25'0 0.0
2017-Nov-14 19:28N 37°55' W 122°25'0 0.0
2017-Nov-14 18:52N 37°55' W 122°25'0 0.3
2017-Nov-14 18:30N 37°55' W 122°25'0 0.0
2017-Nov-14 17:45N 37°55' W 122°25'0 0.9
2017-Nov-14 17:30N 37°55' W 122°25'1 2.0
2017-Nov-14 17:00N 37°54' W 122°24'1 1.8
2017-Nov-14 16:30N 37°55' W 122°25'0 0.0
2017-Nov-14 16:00N 37°55' W 122°25'0 0.0
2017-Nov-14 15:30N 37°55' W 122°25'0 0.1
2017-Nov-14 15:00N 37°55' W 122°25'0 0.7
2017-Nov-14 14:27N 37°56' W 122°25'0 0.4
2017-Nov-14 13:58N 37°56' W 122°25'2 4.5
2017-Nov-14 13:31N 37°53' W 122°25'2 3.9
2017-Nov-14 13:00N 37°55' W 122°25'0 0.0
2017-Nov-14 12:30N 37°55' W 122°25'0 0.0
2017-Nov-14 12:00N 37°55' W 122°25'0 0.0
2017-Nov-14 11:30N 37°55' W 122°25'0 0.0
2017-Nov-14 11:00N 37°55' W 122°25'0 0.1
2017-Nov-14 10:30N 37°55' W 122°24'0 0.1
2017-Nov-14 10:00N 37°55' W 122°25'0 0.0
2017-Nov-14 09:31N 37°55' W 122°25'0 0.0
2017-Nov-14 09:00N 37°55' W 122°25'0 0.4
2017-Nov-14 08:28N 37°55' W 122°25'0 0.6
2017-Nov-14 08:00N 37°55' W 122°25'2 4.9
2017-Nov-14 07:30N 37°55' W 122°22'0 0.2
2017-Nov-14 06:59N 37°55' W 122°22'0 0.0
2017-Nov-14 06:29N 37°55' W 122°22'0 0.0
2017-Nov-14 06:00N 37°55' W 122°22'0 0.7
2017-Nov-14 05:30N 37°54' W 122°22'0 0.6
2017-Nov-14 05:00N 37°54' W 122°22'3 5.3
2017-Nov-14 04:30N 37°55' W 122°25'0 0.7
2017-Nov-14 04:00N 37°55' W 122°25'0 0.0
2017-Nov-14 03:30N 37°55' W 122°25'3 6.9
2017-Nov-14 03:00N 37°52' W 122°24'5 9.5
2017-Nov-14 02:30N 37°48' W 122°21'1 2.7
2017-Nov-14 02:01N 37°48' W 122°19'1 2.6
2017-Nov-14 01:30N 37°48' W 122°20'0 0.7
2017-Nov-14 01:00N 37°49' W 122°20'0 0.0
2017-Nov-14 00:30N 37°49' W 122°20'2 4.3
2017-Nov-14 00:00N 37°49' W 122°23'2 4.3
2017-Nov-13 23:30N 37°51' W 122°24'4 7.0
2017-Nov-13 23:00N 37°54' W 122°23'0 0.4
2017-Nov-13 22:28N 37°54' W 122°22'0 0.0
2017-Nov-13 21:58N 37°54' W 122°22'8 0.4
2017-Nov-13 02:01N 37°48' W 122°18'1 2.5
2017-Nov-13 01:31N 37°48' W 122°19'0 0.5
2017-Nov-13 01:00N 37°48' W 122°19'0 0.1
2017-Nov-13 00:30N 37°48' W 122°19'2 3.2
2017-Nov-13 00:01N 37°48' W 122°17'1 2.6
2017-Nov-12 23:30N 37°48' W 122°19'3 6.7
2017-Nov-12 23:00N 37°48' W 122°23'1 1.1
2017-Nov-12 22:30N 37°48' W 122°24'0 0.0
2017-Nov-12 22:00N 37°48' W 122°24'0 0.0
2017-Nov-12 21:30N 37°48' W 122°24'0 0.0
2017-Nov-12 21:00N 37°48' W 122°24'0 0.0
2017-Nov-12 20:30N 37°48' W 122°24'0 0.0
2017-Nov-12 20:00N 37°48' W 122°24'0 0.0
2017-Nov-12 19:30N 37°48' W 122°24'0 0.0
2017-Nov-12 19:00N 37°48' W 122°24'0 0.0
2017-Nov-12 18:30N 37°48' W 122°24'0 0.0
2017-Nov-12 18:00N 37°48' W 122°24'3 7.0
2017-Nov-12 17:30N 37°52' W 122°25'4 7.4
2017-Nov-12 16:57N 37°56' W 122°25'0 0.0
2017-Nov-12 16:30N 37°56' W 122°25'1 1.4
2017-Nov-12 15:58N 37°55' W 122°25'3 7.4
2017-Nov-12 15:30N 37°52' W 122°25'4 8.2
2017-Nov-12 15:01N 37°49' W 122°29'2 4.1
2017-Nov-12 14:30N 37°49' W 122°31'0 0.3
2017-Nov-12 14:00N 37°49' W 122°31'2 3.8
2017-Nov-12 13:30N 37°49' W 122°29'2 4.4
2017-Nov-12 13:00N 37°51' W 122°27'2 3.4
2017-Nov-12 12:30N 37°53' W 122°26'1 1.9
2017-Nov-12 12:00N 37°53' W 122°25'3 5.0
2017-Nov-12 11:30N 37°56' W 122°25'0 0.1
2017-Nov-12 11:00N 37°56' W 122°25'0 0.8
2017-Nov-12 10:30N 37°55' W 122°25'0 0.3
2017-Nov-12 10:00N 37°55' W 122°25'0 0.0
2017-Nov-12 09:30N 37°55' W 122°25'0 0.0
2017-Nov-12 09:00N 37°55' W 122°25'0 0.0
2017-Nov-12 08:27N 37°55' W 122°25'0 0.0
2017-Nov-12 07:57N 37°55' W 122°25'0 0.0
2017-Nov-12 07:27N 37°55' W 122°25'0 0.0
2017-Nov-12 07:00N 37°55' W 122°25'0 0.0
2017-Nov-12 06:30N 37°55' W 122°25'0 0.0
2017-Nov-12 05:57N 37°55' W 122°25'0 0.0
2017-Nov-12 05:30N 37°55' W 122°25'0 0.0
2017-Nov-12 05:00N 37°55' W 122°25'0 0.0
2017-Nov-12 04:27N 37°55' W 122°25'0 0.0
2017-Nov-12 04:00N 37°55' W 122°25'0 0.0
2017-Nov-12 03:30N 37°55' W 122°25'0 0.0
2017-Nov-12 02:54N 37°55' W 122°25'0 0.0
2017-Nov-12 02:30N 37°55' W 122°25'0 0.0
2017-Nov-12 02:00N 37°55' W 122°25'0 0.0
2017-Nov-12 01:27N 37°55' W 122°25'0 0.0
2017-Nov-12 01:00N 37°55' W 122°25'0 0.0
2017-Nov-12 00:30N 37°55' W 122°25'0 0.0
2017-Nov-11 23:54N 37°55' W 122°25'0 0.0
2017-Nov-11 23:30N 37°55' W 122°25'0 0.0
2017-Nov-11 23:00N 37°55' W 122°25'0 0.0
2017-Nov-11 22:30N 37°55' W 122°25'0 0.0
2017-Nov-11 22:00N 37°55' W 122°25'0 0.6
2017-Nov-11 21:29N 37°55' W 122°25'2 3.8
2017-Nov-11 20:58N 37°54' W 122°22'0 0.0
2017-Nov-11 20:16N 37°54' W 122°22'0 0.0
2017-Nov-11 19:49N 37°54' W 122°22'0 0.0
2017-Nov-11 19:28N 37°54' W 122°22'0 0.0
2017-Nov-11 18:52N 37°54' W 122°22'0 0.0
2017-Nov-11 18:28N 37°54' W 122°22'0 0.0
2017-Nov-11 17:55N 37°54' W 122°22'0 0.0
2017-Nov-11 17:25N 37°54' W 122°22'0 0.0
2017-Nov-11 16:52N 37°54' W 122°22'0 0.0
2017-Nov-11 16:30N 37°54' W 122°22'2 4.8
2017-Nov-11 16:00N 37°53' W 122°24'510.8
2017-Nov-11 15:30N 37°48' W 122°21'3 5.1
2017-Nov-11 15:01N 37°48' W 122°17'0 0.9
2017-Nov-11 14:31N 37°48' W 122°18'1 1.1
2017-Nov-11 14:01N 37°48' W 122°19'0 0.6
2017-Nov-11 13:31N 37°48' W 122°19'3 6.4
2017-Nov-11 13:00N 37°50' W 122°22'5 9.8
2017-Nov-11 12:30N 37°54' W 122°25'1 2.8
2017-Nov-11 12:00N 37°56' W 122°25'1 2.2
2017-Nov-11 11:30N 37°55' W 122°25'1 2.6
2017-Nov-11 11:00N 37°53' W 122°25'2 3.1
2017-Nov-11 10:31N 37°55' W 122°25'1 1.0
2017-Nov-11 10:00N 37°55' W 122°25'0 0.0
2017-Nov-11 09:27N 37°55' W 122°25'0 0.0
2017-Nov-11 09:00N 37°55' W 122°25'0 0.0
2017-Nov-11 08:30N 37°55' W 122°25'0 0.0
2017-Nov-11 08:00N 37°55' W 122°25'0 0.0
2017-Nov-11 07:30N 37°55' W 122°25'0 0.0
2017-Nov-11 07:00N 37°55' W 122°25'0 0.0
2017-Nov-11 06:30N 37°55' W 122°25'0 0.0
2017-Nov-11 06:00N 37°55' W 122°25'0 0.0
2017-Nov-11 05:30N 37°55' W 122°25'0 0.0
2017-Nov-11 05:00N 37°55' W 122°25'0 0.0
2017-Nov-11 04:30N 37°55' W 122°25'0 0.0
2017-Nov-11 04:00N 37°55' W 122°25'0 0.0
2017-Nov-11 03:30N 37°55' W 122°25'0 0.0
2017-Nov-11 03:00N 37°55' W 122°25'0 0.0
2017-Nov-11 02:30N 37°55' W 122°25'0 0.0
2017-Nov-11 02:00N 37°55' W 122°25'0 0.0
2017-Nov-11 01:30N 37°55' W 122°25'0 0.0
2017-Nov-11 01:00N 37°55' W 122°25'0 0.0
2017-Nov-11 00:30N 37°55' W 122°25'0 0.0
2017-Nov-11 00:00N 37°55' W 122°25'0 0.0
2017-Nov-10 23:30N 37°55' W 122°25'0 0.0
2017-Nov-10 23:00N 37°55' W 122°25'3 6.2
2017-Nov-10 22:30N 37°53' W 122°26'5 9.7
2017-Nov-10 22:00N 37°49' W 122°31'0 1.0
2017-Nov-10 21:30N 37°49' W 122°30'4 8.2
2017-Nov-10 21:01N 37°51' W 122°25'4 8.4
2017-Nov-10 20:30N 37°55' W 122°25'1 0.9
2017-Nov-10 19:41N 37°55' W 122°25'0 1.6
2017-Nov-10 19:30N 37°55' W 122°24'0 0.3
2017-Nov-10 18:58N 37°55' W 122°25'0 0.0
2017-Nov-10 18:28N 37°55' W 122°25'0 0.0
2017-Nov-10 17:58N 37°55' W 122°25'0 0.0
2017-Nov-10 17:28N 37°55' W 122°25'0 0.0
2017-Nov-10 16:52N 37°55' W 122°25'0 0.0
2017-Nov-10 16:28N 37°55' W 122°25'0 0.0
2017-Nov-10 15:52N 37°55' W 122°25'0 0.0
2017-Nov-10 15:28N 37°55' W 122°25'0 0.0
2017-Nov-10 14:55N 37°55' W 122°25'1 1.6
2017-Nov-10 14:28N 37°55' W 122°25'511.1
2017-Nov-10 14:01N 37°50' W 122°24'5 9.5
2017-Nov-10 13:31N 37°45' W 122°22'0 0.3
2017-Nov-10 13:01N 37°45' W 122°23'0 0.0
2017-Nov-10 12:31N 37°45' W 122°23'5 9.0
2017-Nov-10 12:00N 37°49' W 122°24'510.2
2017-Nov-10 11:30N 37°54' W 122°25'2 4.0
2017-Nov-10 10:58N 37°54' W 122°22'0 0.0
2017-Nov-10 10:22N 37°54' W 122°22'0 0.0
2017-Nov-10 09:52N 37°54' W 122°22'0 0.0
2017-Nov-10 09:28N 37°54' W 122°22'0 0.0
2017-Nov-10 08:58N 37°54' W 122°22'0 0.0
2017-Nov-10 08:28N 37°54' W 122°22'0 0.0
2017-Nov-10 07:58N 37°54' W 122°22'0 0.0
2017-Nov-10 07:28N 37°54' W 122°22'0 0.0
2017-Nov-10 06:58N 37°54' W 122°22'0 0.0
2017-Nov-10 06:28N 37°54' W 122°22'0 0.0
2017-Nov-10 05:58N 37°54' W 122°22'0 0.0
2017-Nov-10 05:25N 37°54' W 122°22'0 0.0
2017-Nov-10 04:46N 37°54' W 122°22'0 0.0
2017-Nov-10 04:28N 37°54' W 122°22'0 0.0
2017-Nov-10 03:58N 37°54' W 122°22'0 0.0
2017-Nov-10 03:16N 37°54' W 122°22'0 0.0
2017-Nov-10 02:58N 37°54' W 122°22'0 0.0
2017-Nov-10 02:28N 37°54' W 122°22'0 0.0
2017-Nov-10 01:56N 37°54' W 122°22'0 0.0
2017-Nov-10 01:22N 37°54' W 122°22'0 0.0
2017-Nov-10 00:58N 37°54' W 122°22'0 0.0
2017-Nov-10 00:10N 37°54' W 122°22'0 0.0
2017-Nov-09 23:58N 37°54' W 122°22'0 0.0
2017-Nov-09 23:28N 37°54' W 122°22'0 0.0
2017-Nov-09 22:58N 37°54' W 122°22'0 0.0
2017-Nov-09 22:28N 37°54' W 122°22'0 0.0
2017-Nov-09 21:55N 37°54' W 122°22'0 0.0
2017-Nov-09 21:22N 37°54' W 122°22'0 0.0
2017-Nov-09 20:58N 37°54' W 122°22'0 0.0
2017-Nov-09 20:25N 37°54' W 122°22'0 0.0
2017-Nov-09 19:58N 37°54' W 122°22'0 0.0
2017-Nov-09 19:28N 37°54' W 122°22'0 0.0
2017-Nov-09 18:58N 37°54' W 122°22'0 0.0
2017-Nov-09 17:49N 37°54' W 122°22'0 0.0
2017-Nov-09 17:22N 37°54' W 122°22'0 0.0
2017-Nov-09 16:58N 37°54' W 122°22'0 0.0
2017-Nov-09 16:16N 37°54' W 122°22'0 0.0
2017-Nov-09 15:52N 37°54' W 122°22'0 0.0
2017-Nov-09 15:16N 37°54' W 122°22'0 0.0
2017-Nov-09 14:58N 37°54' W 122°22'0 0.0
2017-Nov-09 14:28N 37°54' W 122°22'0 0.0
2017-Nov-09 13:52N 37°54' W 122°22'0 0.0
2017-Nov-09 13:16N 37°54' W 122°22'0 0.0
2017-Nov-09 12:52N 37°54' W 122°22'0 0.0
2017-Nov-09 12:28N 37°54' W 122°22'0 0.0
2017-Nov-09 11:58N 37°54' W 122°22'0 0.0
2017-Nov-09 11:28N 37°54' W 122°22'0 0.0
2017-Nov-09 10:58N 37°54' W 122°22'0 0.0
2017-Nov-09 10:28N 37°54' W 122°22'0 0.0
2017-Nov-09 09:55N 37°54' W 122°22'0 0.0
2017-Nov-09 09:28N 37°54' W 122°22'0 0.0
2017-Nov-09 08:59N 37°54' W 122°22'1 1.5
2017-Nov-09 08:30N 37°54' W 122°23'2 3.1
2017-Nov-09 08:00N 37°55' W 122°25'0 0.1
2017-Nov-09 07:29N 37°55' W 122°25'0 0.4
2017-Nov-09 07:00N 37°55' W 122°25'0 0.2
2017-Nov-09 06:15N 37°55' W 122°25'0 0.0
2017-Nov-09 05:57N 37°55' W 122°25'0 0.0
2017-Nov-09 05:27N 37°55' W 122°25'0 0.0
2017-Nov-09 05:00N 37°55' W 122°25'0 0.0
2017-Nov-09 04:27N 37°55' W 122°25'0 0.0
2017-Nov-09 04:00N 37°55' W 122°25'0 0.0
2017-Nov-09 03:27N 37°55' W 122°25'0 0.0
2017-Nov-09 03:00N 37°55' W 122°25'0 0.0
2017-Nov-09 02:21N 37°55' W 122°25'0 0.0
2017-Nov-09 02:00N 37°55' W 122°25'0 0.0
2017-Nov-09 01:30N 37°55' W 122°25'0 0.0
2017-Nov-09 01:00N 37°55' W 122°25'0 0.0
2017-Nov-09 00:27N 37°55' W 122°25'0 0.0
2017-Nov-09 00:00N 37°55' W 122°25'0 0.0
2017-Nov-08 23:27N 37°55' W 122°25'0 0.0
2017-Nov-08 22:57N 37°55' W 122°25'0 0.0
2017-Nov-08 22:30N 37°55' W 122°25'1 2.3
2017-Nov-08 22:00N 37°54' W 122°24'1 2.2
2017-Nov-08 21:30N 37°54' W 122°22'0 0.0
2017-Nov-08 21:00N 37°54' W 122°22'0 0.0
2017-Nov-08 20:30N 37°54' W 122°22'0 0.0
2017-Nov-08 20:00N 37°54' W 122°22'0 0.0
2017-Nov-08 19:30N 37°54' W 122°22'0 0.0
2017-Nov-08 19:00N 37°54' W 122°22'0 0.0
2017-Nov-08 18:30N 37°54' W 122°22'0 0.0
2017-Nov-08 18:00N 37°54' W 122°22'0 0.0
2017-Nov-08 17:30N 37°54' W 122°22'0 0.0
2017-Nov-08 17:00N 37°54' W 122°22'0 0.0
2017-Nov-08 16:30N 37°54' W 122°22'0 0.0
2017-Nov-08 16:00N 37°54' W 122°22'0 0.0
2017-Nov-08 15:30N 37°54' W 122°22'1 1.9
2017-Nov-08 15:00N 37°54' W 122°24'4 7.2
2017-Nov-08 14:30N 37°51' W 122°23'3 6.2
2017-Nov-08 14:00N 37°48' W 122°20'1 1.5
2017-Nov-08 13:31N 37°49' W 122°20'1 1.6
2017-Nov-08 13:00N 37°48' W 122°21'2 3.9
2017-Nov-08 12:31N 37°49' W 122°23'5 9.1
2017-Nov-08 12:00N 37°53' W 122°25'2 4.5
2017-Nov-08 11:30N 37°54' W 122°22'0 0.0
2017-Nov-08 10:59N 37°54' W 122°22'0 0.0
2017-Nov-08 10:29N 37°54' W 122°22'0 0.0
2017-Nov-08 09:59N 37°54' W 122°22'0 0.0
2017-Nov-08 09:29N 37°54' W 122°22'0 0.0
2017-Nov-08 08:59N 37°54' W 122°22'0 0.0
2017-Nov-08 08:29N 37°54' W 122°22'0 0.0
2017-Nov-08 07:59N 37°54' W 122°22'0 0.0
2017-Nov-08 07:29N 37°54' W 122°22'0 0.0
2017-Nov-08 06:59N 37°54' W 122°22'1 1.5
2017-Nov-08 06:29N 37°55' W 122°22'0 0.0
2017-Nov-08 05:56N 37°55' W 122°22'0 0.0
2017-Nov-08 05:26N 37°55' W 122°22'0 0.0
2017-Nov-08 04:56N 37°55' W 122°22'0 0.0
2017-Nov-08 03:20N 37°55' W 122°22'0 0.0
2017-Nov-08 02:56N 37°55' W 122°22'0 0.0
2017-Nov-08 02:23N 37°55' W 122°22'0 0.2
2017-Nov-08 02:00N 37°55' W 122°22'2 3.4
2017-Nov-08 01:29N 37°54' W 122°24'1 2.0
2017-Nov-08 00:59N 37°55' W 122°25'0 0.0
2017-Nov-08 00:26N 37°55' W 122°25'0 0.0
2017-Nov-07 23:50N 37°55' W 122°25'0 0.0
2017-Nov-07 23:29N 37°55' W 122°25'  
Track history (hours):
 
Tides and Currents Weather Stations Pressure Air Temp Water Temp Dewpoint Dewpoint Depression Visibility Wind Speed Wind Dir Waves Ship Positions

Caden Foss

Owner: Foss Maritime Co, Seattle, WA. More information available from US FCC via Universal Licensing System and Coast Guard Vessel Documentation Center.

Last reported at 2017-Nov-17 23:00 UTC. Time now 2017-Nov-17 23:19 UTC.
Position N 37°52' W 122°24'.

Length 34 m; draft 6.1 m.

Type: Tug. MMSI: 367795270.

Date/timePositionNaut miles runAvg speedWind from/ knotsBaromVisibWave heightAir tempDewpointWater temp
2017-Nov-17 23:00N 37°52' W 122°24'3 6.1
2017-Nov-17 22:30N 37°49' W 122°25'0 0.0
2017-Nov-17 22:01N 37°49' W 122°25'1 1.4
2017-Nov-17 21:30N 37°49' W 122°25'1 1.4
2017-Nov-17 21:00N 37°50' W 122°25'4 7.6
2017-Nov-17 20:31N 37°54' W 122°25'2 3.1
2017-Nov-17 20:00N 37°55' W 122°25'0 0.0
2017-Nov-17 19:30N 37°55' W 122°25'0 0.0
2017-Nov-17 19:00N 37°55' W 122°25'0 0.0
2017-Nov-17 18:27N 37°55' W 122°25'0 0.0
2017-Nov-17 17:54N 37°55' W 122°25'0 0.0
2017-Nov-17 17:24N 37°55' W 122°25'0 0.0
2017-Nov-17 16:48N 37°55' W 122°25'0 0.0
2017-Nov-17 16:30N 37°55' W 122°25'0 0.8
2017-Nov-17 15:56N 37°56' W 122°25'0 0.3
2017-Nov-17 15:30N 37°56' W 122°25'1 2.9
2017-Nov-17 15:00N 37°54' W 122°25'3 6.9
2017-Nov-17 14:30N 37°51' W 122°25'4 8.1
2017-Nov-17 14:00N 37°49' W 122°29'1 2.4
2017-Nov-17 13:30N 37°49' W 122°31'0 0.6
2017-Nov-17 13:00N 37°49' W 122°31'1 1.8
2017-Nov-17 12:30N 37°49' W 122°30'5 9.2
2017-Nov-17 12:00N 37°52' W 122°26'3 6.1
2017-Nov-17 11:29N 37°55' W 122°25'0 0.0
2017-Nov-17 10:59N 37°55' W 122°25'0 0.0
2017-Nov-17 10:26N 37°55' W 122°25'0 0.0
2017-Nov-17 09:59N 37°55' W 122°25'0 0.0
2017-Nov-17 09:26N 37°55' W 122°25'0 0.0
2017-Nov-17 08:59N 37°55' W 122°25'0 0.0
2017-Nov-17 08:29N 37°55' W 122°25'0 0.0
2017-Nov-17 07:56N 37°55' W 122°25'0 0.0
2017-Nov-17 07:29N 37°55' W 122°25'0 0.0
2017-Nov-17 06:59N 37°55' W 122°25'0 0.0
2017-Nov-17 06:26N 37°55' W 122°25'0 0.0
2017-Nov-17 05:59N 37°55' W 122°25'0 0.0
2017-Nov-17 05:29N 37°55' W 122°25'0 0.0
2017-Nov-17 04:53N 37°55' W 122°25'0 0.0
2017-Nov-17 04:29N 37°55' W 122°25'0 0.0
2017-Nov-17 03:59N 37°55' W 122°25'0 0.4
2017-Nov-17 03:29N 37°55' W 122°25'0 0.3
2017-Nov-17 02:58N 37°55' W 122°25'2 4.0
2017-Nov-17 02:30N 37°53' W 122°25'4 9.0
2017-Nov-17 02:00N 37°49' W 122°24'5 9.5
2017-Nov-17 01:30N 37°45' W 122°21'0 0.5
2017-Nov-17 01:00N 37°45' W 122°21'2 3.4
2017-Nov-17 00:30N 37°47' W 122°22'5 9.4
2017-Nov-17 00:01N 37°51' W 122°24'4 7.3
2017-Nov-16 23:30N 37°55' W 122°25'1 1.8
2017-Nov-16 22:58N 37°54' W 122°23'1 2.6
2017-Nov-16 22:28N 37°55' W 122°25'0 0.0
2017-Nov-16 21:46N 37°55' W 122°25'0 0.0
2017-Nov-16 21:28N 37°55' W 122°25'0 0.0
2017-Nov-16 21:01N 37°55' W 122°25'2 3.3
2017-Nov-16 20:24N 37°54' W 122°22'0 0.0
2017-Nov-16 20:00N 37°54' W 122°22'1 1.9
2017-Nov-16 19:30N 37°54' W 122°24'2 2.8
2017-Nov-16 18:54N 37°56' W 122°25'0 0.4
2017-Nov-16 18:30N 37°55' W 122°25'2 1.3
2017-Nov-16 16:34N 37°54' W 122°22'0 0.0
2017-Nov-16 16:26N 37°54' W 122°22'0 0.0
2017-Nov-16 15:53N 37°54' W 122°22'0 0.0
2017-Nov-16 15:22N 37°54' W 122°22'0 0.0
2017-Nov-16 15:00N 37°54' W 122°22'0 0.0
2017-Nov-16 14:29N 37°54' W 122°22'0 0.0
2017-Nov-16 13:58N 37°54' W 122°22'2 4.6
2017-Nov-16 13:30N 37°53' W 122°25'510.9
2017-Nov-16 13:01N 37°48' W 122°21'2 4.2
2017-Nov-16 12:31N 37°48' W 122°19'1 1.6
2017-Nov-16 12:00N 37°48' W 122°20'2 3.4
2017-Nov-16 11:31N 37°48' W 122°22'1 1.1
2017-Nov-16 11:00N 37°48' W 122°21'2 3.2
2017-Nov-16 10:30N 37°48' W 122°19'0 0.1
2017-Nov-16 10:01N 37°48' W 122°19'0 0.0
2017-Nov-16 09:31N 37°48' W 122°19'0 0.0
2017-Nov-16 09:00N 37°48' W 122°19'0 0.0
2017-Nov-16 08:31N 37°48' W 122°19'0 0.0
2017-Nov-16 08:01N 37°48' W 122°19'0 0.0
2017-Nov-16 07:31N 37°48' W 122°19'0 0.0
2017-Nov-16 07:01N 37°48' W 122°19'0 0.0
2017-Nov-16 06:30N 37°48' W 122°19'0 0.0
2017-Nov-16 06:01N 37°48' W 122°19'3 5.1
2017-Nov-16 05:30N 37°46' W 122°22'1 2.7
2017-Nov-16 05:01N 37°45' W 122°23'0 0.1
2017-Nov-16 04:30N 37°45' W 122°23'2 4.4
2017-Nov-16 04:00N 37°47' W 122°21'3 5.0
2017-Nov-16 03:30N 37°48' W 122°18'0 0.5
2017-Nov-16 03:01N 37°48' W 122°18'1 2.7
2017-Nov-16 02:30N 37°48' W 122°20'0 0.0
2017-Nov-16 02:00N 37°48' W 122°20'0 0.2
2017-Nov-16 01:30N 37°48' W 122°19'0 0.6
2017-Nov-16 01:00N 37°48' W 122°19'1 2.5
2017-Nov-16 00:30N 37°48' W 122°21'510.6
2017-Nov-16 00:00N 37°52' W 122°24'712.4
2017-Nov-15 23:25N 37°60' W 122°25'612.9
2017-Nov-15 22:59N 38°03' W 122°19'8 3.6
2017-Nov-15 20:41N 38°02' W 122°09'2 6.5
2017-Nov-15 20:23N 38°03' W 122°11'3 8.0
2017-Nov-15 20:00N 38°04' W 122°15'4 7.9
2017-Nov-15 19:28N 38°03' W 122°20'3 7.5
2017-Nov-15 19:00N 38°01' W 122°24'5 8.0
2017-Nov-15 18:26N 37°57' W 122°27'3 6.2
2017-Nov-15 18:00N 37°54' W 122°26'1 2.7
2017-Nov-15 17:31N 37°55' W 122°25'510.6
2017-Nov-15 17:00N 37°50' W 122°23'4 7.8
2017-Nov-15 16:30N 37°48' W 122°19'0 0.3
2017-Nov-15 16:00N 37°48' W 122°19'0 0.7
2017-Nov-15 15:30N 37°48' W 122°19'510.2
2017-Nov-15 15:00N 37°51' W 122°24'4 7.6
2017-Nov-15 14:29N 37°55' W 122°25'0 0.0
2017-Nov-15 13:59N 37°55' W 122°25'0 0.0
2017-Nov-15 13:29N 37°55' W 122°25'0 0.0
2017-Nov-15 12:59N 37°55' W 122°25'0 0.0
2017-Nov-15 12:29N 37°55' W 122°25'0 0.0
2017-Nov-15 11:56N 37°55' W 122°25'0 0.0
2017-Nov-15 11:26N 37°55' W 122°25'0 0.0
2017-Nov-15 10:53N 37°55' W 122°25'0 0.0
2017-Nov-15 10:26N 37°55' W 122°25'0 0.0
2017-Nov-15 09:56N 37°55' W 122°25'0 0.0
2017-Nov-15 09:29N 37°55' W 122°25'0 0.0
2017-Nov-15 08:56N 37°55' W 122°25'0 0.0
2017-Nov-15 08:29N 37°55' W 122°25'0 0.0
2017-Nov-15 07:50N 37°55' W 122°25'0 0.0
2017-Nov-15 07:29N 37°55' W 122°25'0 0.0
2017-Nov-15 06:53N 37°55' W 122°25'0 0.0
2017-Nov-15 06:26N 37°55' W 122°25'0 0.0
2017-Nov-15 06:00N 37°55' W 122°25'2 2.7
2017-Nov-15 05:15N 37°54' W 122°22'0 0.0
2017-Nov-15 05:00N 37°54' W 122°22'0 0.0
2017-Nov-15 04:27N 37°54' W 122°22'0 0.0
2017-Nov-15 03:57N 37°54' W 122°22'0 0.0
2017-Nov-15 03:30N 37°54' W 122°22'1 1.6
2017-Nov-15 03:00N 37°55' W 122°22'0 0.6
2017-Nov-15 02:28N 37°55' W 122°22'1 1.5
2017-Nov-15 02:00N 37°54' W 122°22'0 0.0
2017-Nov-15 01:25N 37°54' W 122°22'1 1.5
2017-Nov-15 01:00N 37°55' W 122°22'1 1.3
2017-Nov-15 00:30N 37°55' W 122°22'3 5.3
2017-Nov-15 00:00N 37°54' W 122°25'510.8
2017-Nov-14 23:31N 37°49' W 122°21'2 3.8
2017-Nov-14 23:00N 37°48' W 122°20'2 3.3
2017-Nov-14 22:30N 37°48' W 122°22'2 3.0
2017-Nov-14 22:01N 37°49' W 122°23'2 4.3
2017-Nov-14 21:30N 37°51' W 122°24'4 8.2
2017-Nov-14 21:00N 37°55' W 122°25'0 0.0
2017-Nov-14 20:28N 37°55' W 122°25'0 0.0
2017-Nov-14 19:58N 37°55' W 122°25'0 0.0
2017-Nov-14 19:28N 37°55' W 122°25'0 0.0
2017-Nov-14 18:52N 37°55' W 122°25'0 0.3
2017-Nov-14 18:30N 37°55' W 122°25'0 0.0
2017-Nov-14 17:45N 37°55' W 122°25'0 0.9
2017-Nov-14 17:30N 37°55' W 122°25'1 2.0
2017-Nov-14 17:00N 37°54' W 122°24'1 1.8
2017-Nov-14 16:30N 37°55' W 122°25'0 0.0
2017-Nov-14 16:00N 37°55' W 122°25'0 0.0
2017-Nov-14 15:30N 37°55' W 122°25'0 0.1
2017-Nov-14 15:00N 37°55' W 122°25'0 0.7
2017-Nov-14 14:27N 37°56' W 122°25'0 0.4
2017-Nov-14 13:58N 37°56' W 122°25'2 4.5
2017-Nov-14 13:31N 37°53' W 122°25'2 3.9
2017-Nov-14 13:00N 37°55' W 122°25'0 0.0
2017-Nov-14 12:30N 37°55' W 122°25'0 0.0
2017-Nov-14 12:00N 37°55' W 122°25'0 0.0
2017-Nov-14 11:30N 37°55' W 122°25'0 0.0
2017-Nov-14 11:00N 37°55' W 122°25'0 0.1
2017-Nov-14 10:30N 37°55' W 122°24'0 0.1
2017-Nov-14 10:00N 37°55' W 122°25'0 0.0
2017-Nov-14 09:31N 37°55' W 122°25'0 0.0
2017-Nov-14 09:00N 37°55' W 122°25'0 0.4
2017-Nov-14 08:28N 37°55' W 122°25'0 0.6
2017-Nov-14 08:00N 37°55' W 122°25'2 4.9
2017-Nov-14 07:30N 37°55' W 122°22'0 0.2
2017-Nov-14 06:59N 37°55' W 122°22'0 0.0
2017-Nov-14 06:29N 37°55' W 122°22'0 0.0
2017-Nov-14 06:00N 37°55' W 122°22'0 0.7
2017-Nov-14 05:30N 37°54' W 122°22'0 0.6
2017-Nov-14 05:00N 37°54' W 122°22'3 5.3
2017-Nov-14 04:30N 37°55' W 122°25'0 0.7
2017-Nov-14 04:00N 37°55' W 122°25'0 0.0
2017-Nov-14 03:30N 37°55' W 122°25'3 6.9
2017-Nov-14 03:00N 37°52' W 122°24'5 9.5
2017-Nov-14 02:30N 37°48' W 122°21'1 2.7
2017-Nov-14 02:01N 37°48' W 122°19'1 2.6
2017-Nov-14 01:30N 37°48' W 122°20'0 0.7
2017-Nov-14 01:00N 37°49' W 122°20'0 0.0
2017-Nov-14 00:30N 37°49' W 122°20'2 4.3
2017-Nov-14 00:00N 37°49' W 122°23'2 4.3
2017-Nov-13 23:30N 37°51' W 122°24'4 7.0
2017-Nov-13 23:00N 37°54' W 122°23'0 0.4
2017-Nov-13 22:28N 37°54' W 122°22'0 0.0
2017-Nov-13 21:58N 37°54' W 122°22'8 0.4
2017-Nov-13 02:01N 37°48' W 122°18'1 2.5
2017-Nov-13 01:31N 37°48' W 122°19'0 0.5
2017-Nov-13 01:00N 37°48' W 122°19'0 0.1
2017-Nov-13 00:30N 37°48' W 122°19'2 3.2
2017-Nov-13 00:01N 37°48' W 122°17'1 2.6
2017-Nov-12 23:30N 37°48' W 122°19'3 6.7
2017-Nov-12 23:00N 37°48' W 122°23'1 1.1
2017-Nov-12 22:30N 37°48' W 122°24'0 0.0
2017-Nov-12 22:00N 37°48' W 122°24'0 0.0
2017-Nov-12 21:30N 37°48' W 122°24'0 0.0
2017-Nov-12 21:00N 37°48' W 122°24'0 0.0
2017-Nov-12 20:30N 37°48' W 122°24'0 0.0
2017-Nov-12 20:00N 37°48' W 122°24'0 0.0
2017-Nov-12 19:30N 37°48' W 122°24'0 0.0
2017-Nov-12 19:00N 37°48' W 122°24'0 0.0
2017-Nov-12 18:30N 37°48' W 122°24'0 0.0
2017-Nov-12 18:00N 37°48' W 122°24'3 7.0
2017-Nov-12 17:30N 37°52' W 122°25'4 7.4
2017-Nov-12 16:57N 37°56' W 122°25'0 0.0
2017-Nov-12 16:30N 37°56' W 122°25'1 1.4
2017-Nov-12 15:58N 37°55' W 122°25'3 7.4
2017-Nov-12 15:30N 37°52' W 122°25'4 8.2
2017-Nov-12 15:01N 37°49' W 122°29'2 4.1
2017-Nov-12 14:30N 37°49' W 122°31'0 0.3
2017-Nov-12 14:00N 37°49' W 122°31'2 3.8
2017-Nov-12 13:30N 37°49' W 122°29'2 4.4
2017-Nov-12 13:00N 37°51' W 122°27'2 3.4
2017-Nov-12 12:30N 37°53' W 122°26'1 1.9
2017-Nov-12 12:00N 37°53' W 122°25'3 5.0
2017-Nov-12 11:30N 37°56' W 122°25'0 0.1
2017-Nov-12 11:00N 37°56' W 122°25'0 0.8
2017-Nov-12 10:30N 37°55' W 122°25'0 0.3
2017-Nov-12 10:00N 37°55' W 122°25'0 0.0
2017-Nov-12 09:30N 37°55' W 122°25'0 0.0
2017-Nov-12 09:00N 37°55' W 122°25'0 0.0
2017-Nov-12 08:27N 37°55' W 122°25'0 0.0
2017-Nov-12 07:57N 37°55' W 122°25'0 0.0
2017-Nov-12 07:27N 37°55' W 122°25'0 0.0
2017-Nov-12 07:00N 37°55' W 122°25'0 0.0
2017-Nov-12 06:30N 37°55' W 122°25'0 0.0
2017-Nov-12 05:57N 37°55' W 122°25'0 0.0
2017-Nov-12 05:30N 37°55' W 122°25'0 0.0
2017-Nov-12 05:00N 37°55' W 122°25'0 0.0
2017-Nov-12 04:27N 37°55' W 122°25'0 0.0
2017-Nov-12 04:00N 37°55' W 122°25'0 0.0
2017-Nov-12 03:30N 37°55' W 122°25'0 0.0
2017-Nov-12 02:54N 37°55' W 122°25'0 0.0
2017-Nov-12 02:30N 37°55' W 122°25'0 0.0
2017-Nov-12 02:00N 37°55' W 122°25'0 0.0
2017-Nov-12 01:27N 37°55' W 122°25'0 0.0
2017-Nov-12 01:00N 37°55' W 122°25'0 0.0
2017-Nov-12 00:30N 37°55' W 122°25'0 0.0
2017-Nov-11 23:54N 37°55' W 122°25'0 0.0
2017-Nov-11 23:30N 37°55' W 122°25'0 0.0
2017-Nov-11 23:00N 37°55' W 122°25'0 0.0
2017-Nov-11 22:30N 37°55' W 122°25'0 0.0
2017-Nov-11 22:00N 37°55' W 122°25'0 0.6
2017-Nov-11 21:29N 37°55' W 122°25'2 3.8
2017-Nov-11 20:58N 37°54' W 122°22'0 0.0
2017-Nov-11 20:16N 37°54' W 122°22'0 0.0
2017-Nov-11 19:49N 37°54' W 122°22'0 0.0
2017-Nov-11 19:28N 37°54' W 122°22'0 0.0
2017-Nov-11 18:52N 37°54' W 122°22'0 0.0
2017-Nov-11 18:28N 37°54' W 122°22'0 0.0
2017-Nov-11 17:55N 37°54' W 122°22'0 0.0
2017-Nov-11 17:25N 37°54' W 122°22'0 0.0
2017-Nov-11 16:52N 37°54' W 122°22'0 0.0
2017-Nov-11 16:30N 37°54' W 122°22'2 4.8
2017-Nov-11 16:00N 37°53' W 122°24'510.8
2017-Nov-11 15:30N 37°48' W 122°21'3 5.1
2017-Nov-11 15:01N 37°48' W 122°17'0 0.9
2017-Nov-11 14:31N 37°48' W 122°18'1 1.1
2017-Nov-11 14:01N 37°48' W 122°19'0 0.6
2017-Nov-11 13:31N 37°48' W 122°19'3 6.4
2017-Nov-11 13:00N 37°50' W 122°22'5 9.8
2017-Nov-11 12:30N 37°54' W 122°25'1 2.8
2017-Nov-11 12:00N 37°56' W 122°25'1 2.2
2017-Nov-11 11:30N 37°55' W 122°25'1 2.6
2017-Nov-11 11:00N 37°53' W 122°25'2 3.1
2017-Nov-11 10:31N 37°55' W 122°25'1 1.0
2017-Nov-11 10:00N 37°55' W 122°25'0 0.0
2017-Nov-11 09:27N 37°55' W 122°25'0 0.0
2017-Nov-11 09:00N 37°55' W 122°25'0 0.0
2017-Nov-11 08:30N 37°55' W 122°25'0 0.0
2017-Nov-11 08:00N 37°55' W 122°25'0 0.0
2017-Nov-11 07:30N 37°55' W 122°25'0 0.0
2017-Nov-11 07:00N 37°55' W 122°25'0 0.0
2017-Nov-11 06:30N 37°55' W 122°25'0 0.0
2017-Nov-11 06:00N 37°55' W 122°25'0 0.0
2017-Nov-11 05:30N 37°55' W 122°25'0 0.0
2017-Nov-11 05:00N 37°55' W 122°25'0 0.0
2017-Nov-11 04:30N 37°55' W 122°25'0 0.0
2017-Nov-11 04:00N 37°55' W 122°25'0 0.0
2017-Nov-11 03:30N 37°55' W 122°25'0 0.0
2017-Nov-11 03:00N 37°55' W 122°25'0 0.0
2017-Nov-11 02:30N 37°55' W 122°25'0 0.0
2017-Nov-11 02:00N 37°55' W 122°25'0 0.0
2017-Nov-11 01:30N 37°55' W 122°25'0 0.0
2017-Nov-11 01:00N 37°55' W 122°25'0 0.0
2017-Nov-11 00:30N 37°55' W 122°25'0 0.0
2017-Nov-11 00:00N 37°55' W 122°25'0 0.0
2017-Nov-10 23:30N 37°55' W 122°25'0 0.0
2017-Nov-10 23:00N 37°55' W 122°25'3 6.2
2017-Nov-10 22:30N 37°53' W 122°26'5 9.7
2017-Nov-10 22:00N 37°49' W 122°31'0 1.0
2017-Nov-10 21:30N 37°49' W 122°30'4 8.2
2017-Nov-10 21:01N 37°51' W 122°25'4 8.4
2017-Nov-10 20:30N 37°55' W 122°25'1 0.9
2017-Nov-10 19:41N 37°55' W 122°25'0 1.6
2017-Nov-10 19:30N 37°55' W 122°24'0 0.3
2017-Nov-10 18:58N 37°55' W 122°25'0 0.0
2017-Nov-10 18:28N 37°55' W 122°25'0 0.0
2017-Nov-10 17:58N 37°55' W 122°25'0 0.0
2017-Nov-10 17:28N 37°55' W 122°25'0 0.0
2017-Nov-10 16:52N 37°55' W 122°25'0 0.0
2017-Nov-10 16:28N 37°55' W 122°25'0 0.0
2017-Nov-10 15:52N 37°55' W 122°25'0 0.0
2017-Nov-10 15:28N 37°55' W 122°25'0 0.0
2017-Nov-10 14:55N 37°55' W 122°25'1 1.6
2017-Nov-10 14:28N 37°55' W 122°25'511.1
2017-Nov-10 14:01N 37°50' W 122°24'5 9.5
2017-Nov-10 13:31N 37°45' W 122°22'0 0.3
2017-Nov-10 13:01N 37°45' W 122°23'0 0.0
2017-Nov-10 12:31N 37°45' W 122°23'5 9.0
2017-Nov-10 12:00N 37°49' W 122°24'510.2
2017-Nov-10 11:30N 37°54' W 122°25'2 4.0
2017-Nov-10 10:58N 37°54' W 122°22'0 0.0
2017-Nov-10 10:22N 37°54' W 122°22'0 0.0
2017-Nov-10 09:52N 37°54' W 122°22'0 0.0
2017-Nov-10 09:28N 37°54' W 122°22'0 0.0
2017-Nov-10 08:58N 37°54' W 122°22'0 0.0
2017-Nov-10 08:28N 37°54' W 122°22'0 0.0
2017-Nov-10 07:58N 37°54' W 122°22'0 0.0
2017-Nov-10 07:28N 37°54' W 122°22'0 0.0
2017-Nov-10 06:58N 37°54' W 122°22'0 0.0
2017-Nov-10 06:28N 37°54' W 122°22'0 0.0
2017-Nov-10 05:58N 37°54' W 122°22'0 0.0
2017-Nov-10 05:25N 37°54' W 122°22'0 0.0
2017-Nov-10 04:46N 37°54' W 122°22'0 0.0
2017-Nov-10 04:28N 37°54' W 122°22'0 0.0
2017-Nov-10 03:58N 37°54' W 122°22'0 0.0
2017-Nov-10 03:16N 37°54' W 122°22'0 0.0
2017-Nov-10 02:58N 37°54' W 122°22'0 0.0
2017-Nov-10 02:28N 37°54' W 122°22'0 0.0
2017-Nov-10 01:56N 37°54' W 122°22'0 0.0
2017-Nov-10 01:22N 37°54' W 122°22'0 0.0
2017-Nov-10 00:58N 37°54' W 122°22'0 0.0
2017-Nov-10 00:10N 37°54' W 122°22'0 0.0
2017-Nov-09 23:58N 37°54' W 122°22'0 0.0
2017-Nov-09 23:28N 37°54' W 122°22'0 0.0
2017-Nov-09 22:58N 37°54' W 122°22'0 0.0
2017-Nov-09 22:28N 37°54' W 122°22'0 0.0
2017-Nov-09 21:55N 37°54' W 122°22'0 0.0
2017-Nov-09 21:22N 37°54' W 122°22'0 0.0
2017-Nov-09 20:58N 37°54' W 122°22'0 0.0
2017-Nov-09 20:25N 37°54' W 122°22'0 0.0
2017-Nov-09 19:58N 37°54' W 122°22'0 0.0
2017-Nov-09 19:28N 37°54' W 122°22'0 0.0
2017-Nov-09 18:58N 37°54' W 122°22'0 0.0
2017-Nov-09 17:49N 37°54' W 122°22'0 0.0
2017-Nov-09 17:22N 37°54' W 122°22'0 0.0
2017-Nov-09 16:58N 37°54' W 122°22'0 0.0
2017-Nov-09 16:16N 37°54' W 122°22'0 0.0
2017-Nov-09 15:52N 37°54' W 122°22'0 0.0
2017-Nov-09 15:16N 37°54' W 122°22'0 0.0
2017-Nov-09 14:58N 37°54' W 122°22'0 0.0
2017-Nov-09 14:28N 37°54' W 122°22'0 0.0
2017-Nov-09 13:52N 37°54' W 122°22'0 0.0
2017-Nov-09 13:16N 37°54' W 122°22'0 0.0
2017-Nov-09 12:52N 37°54' W 122°22'0 0.0
2017-Nov-09 12:28N 37°54' W 122°22'0 0.0
2017-Nov-09 11:58N 37°54' W 122°22'0 0.0
2017-Nov-09 11:28N 37°54' W 122°22'0 0.0
2017-Nov-09 10:58N 37°54' W 122°22'0 0.0
2017-Nov-09 10:28N 37°54' W 122°22'0 0.0
2017-Nov-09 09:55N 37°54' W 122°22'0 0.0
2017-Nov-09 09:28N 37°54' W 122°22'0 0.0
2017-Nov-09 08:59N 37°54' W 122°22'1 1.5
2017-Nov-09 08:30N 37°54' W 122°23'2 3.1
2017-Nov-09 08:00N 37°55' W 122°25'0 0.1
2017-Nov-09 07:29N 37°55' W 122°25'0 0.4
2017-Nov-09 07:00N 37°55' W 122°25'0 0.2
2017-Nov-09 06:15N 37°55' W 122°25'0 0.0
2017-Nov-09 05:57N 37°55' W 122°25'0 0.0
2017-Nov-09 05:27N 37°55' W 122°25'0 0.0
2017-Nov-09 05:00N 37°55' W 122°25'0 0.0
2017-Nov-09 04:27N 37°55' W 122°25'0 0.0
2017-Nov-09 04:00N 37°55' W 122°25'0 0.0
2017-Nov-09 03:27N 37°55' W 122°25'0 0.0
2017-Nov-09 03:00N 37°55' W 122°25'0 0.0
2017-Nov-09 02:21N 37°55' W 122°25'0 0.0
2017-Nov-09 02:00N 37°55' W 122°25'0 0.0
2017-Nov-09 01:30N 37°55' W 122°25'0 0.0
2017-Nov-09 01:00N 37°55' W 122°25'0 0.0
2017-Nov-09 00:27N 37°55' W 122°25'0 0.0
2017-Nov-09 00:00N 37°55' W 122°25'0 0.0
2017-Nov-08 23:27N 37°55' W 122°25'0 0.0
2017-Nov-08 22:57N 37°55' W 122°25'0 0.0
2017-Nov-08 22:30N 37°55' W 122°25'1 2.3
2017-Nov-08 22:00N 37°54' W 122°24'1 2.2
2017-Nov-08 21:30N 37°54' W 122°22'0 0.0
2017-Nov-08 21:00N 37°54' W 122°22'0 0.0
2017-Nov-08 20:30N 37°54' W 122°22'0 0.0
2017-Nov-08 20:00N 37°54' W 122°22'0 0.0
2017-Nov-08 19:30N 37°54' W 122°22'0 0.0
2017-Nov-08 19:00N 37°54' W 122°22'0 0.0
2017-Nov-08 18:30N 37°54' W 122°22'0 0.0
2017-Nov-08 18:00N 37°54' W 122°22'0 0.0
2017-Nov-08 17:30N 37°54' W 122°22'0 0.0
2017-Nov-08 17:00N 37°54' W 122°22'0 0.0
2017-Nov-08 16:30N 37°54' W 122°22'0 0.0
2017-Nov-08 16:00N 37°54' W 122°22'0 0.0
2017-Nov-08 15:30N 37°54' W 122°22'1 1.9
2017-Nov-08 15:00N 37°54' W 122°24'4 7.2
2017-Nov-08 14:30N 37°51' W 122°23'3 6.2
2017-Nov-08 14:00N 37°48' W 122°20'1 1.5
2017-Nov-08 13:31N 37°49' W 122°20'1 1.6
2017-Nov-08 13:00N 37°48' W 122°21'2 3.9
2017-Nov-08 12:31N 37°49' W 122°23'5 9.1
2017-Nov-08 12:00N 37°53' W 122°25'2 4.5
2017-Nov-08 11:30N 37°54' W 122°22'0 0.0
2017-Nov-08 10:59N 37°54' W 122°22'0 0.0
2017-Nov-08 10:29N 37°54' W 122°22'0 0.0
2017-Nov-08 09:59N 37°54' W 122°22'0 0.0
2017-Nov-08 09:29N 37°54' W 122°22'0 0.0
2017-Nov-08 08:59N 37°54' W 122°22'0 0.0
2017-Nov-08 08:29N 37°54' W 122°22'0 0.0
2017-Nov-08 07:59N 37°54' W 122°22'0 0.0
2017-Nov-08 07:29N 37°54' W 122°22'0 0.0
2017-Nov-08 06:59N 37°54' W 122°22'1 1.5
2017-Nov-08 06:29N 37°55' W 122°22'0 0.0
2017-Nov-08 05:56N 37°55' W 122°22'0 0.0
2017-Nov-08 05:26N 37°55' W 122°22'0 0.0
2017-Nov-08 04:56N 37°55' W 122°22'0 0.0
2017-Nov-08 03:20N 37°55' W 122°22'0 0.0
2017-Nov-08 02:56N 37°55' W 122°22'0 0.0
2017-Nov-08 02:23N 37°55' W 122°22'0 0.2
2017-Nov-08 02:00N 37°55' W 122°22'2 3.4
2017-Nov-08 01:29N 37°54' W 122°24'1 2.0
2017-Nov-08 00:59N 37°55' W 122°25'0 0.0
2017-Nov-08 00:26N 37°55' W 122°25'0 0.0
2017-Nov-07 23:50N 37°55' W 122°25'0 0.0
2017-Nov-07 23:29N 37°55' W 122°25'  

Dump ship's entire track history